Time;durP1;ratioP1;P1;durP2;ratioP2;P2;SDS_P1;SDS_P2;PMS_P1;PMS_P2;Temp;Humidity;BMP_temperature;BMP_pressure;BME280_temperature;BME280_humidity;BME280_pressure;Samples;Min_cycle;Max_cycle;Signal;HPM_P1;HPM_P2
2023/07/23 00:00:21;;;;;;;9.93;6.35;;;18.10;99.90;;;;;;5050622;28;20040;-69
2023/07/23 00:02:46;;;;;;;12.25;7.32;;;18.00;99.90;;;;;;5051568;28;20025;-68
2023/07/23 00:05:12;;;;;;;12.05;7.07;;;18.00;99.90;;;;;;5050968;28;20116;-67
2023/07/23 00:07:38;;;;;;;11.57;6.63;;;18.00;99.90;;;;;;5051199;28;20124;-68
2023/07/23 00:10:04;;;;;;;10.63;6.65;;;18.00;99.90;;;;;;5051294;28;20037;-68
2023/07/23 00:12:31;;;;;;;10.68;6.97;;;18.00;99.90;;;;;;5050122;28;20463;-69
2023/07/23 00:14:57;;;;;;;12.23;7.77;;;18.00;99.90;;;;;;5051208;28;20029;-68
2023/07/23 00:17:22;;;;;;;12.43;7.13;;;18.00;99.90;;;;;;5051377;28;20731;-68
2023/07/23 00:19:48;;;;;;;12.38;7.80;;;18.00;99.90;;;;;;5050945;28;20116;-69
2023/07/23 00:22:14;;;;;;;14.77;7.38;;;18.00;99.90;;;;;;5051282;28;20029;-68
2023/07/23 00:24:39;;;;;;;10.88;6.68;;;17.90;99.90;;;;;;5050860;28;20029;-68
2023/07/23 00:27:05;;;;;;;14.50;7.30;;;17.90;99.90;;;;;;5050083;28;20028;-69
2023/07/23 00:29:31;;;;;;;10.13;6.45;;;17.90;99.90;;;;;;5051714;28;20442;-68
2023/07/23 00:31:56;;;;;;;12.95;7.57;;;17.90;99.90;;;;;;5050606;28;20057;-67
2023/07/23 00:34:23;;;;;;;11.02;6.68;;;17.90;99.90;;;;;;5050396;28;20040;-68
2023/07/23 00:36:48;;;;;;;11.15;7.07;;;17.90;99.90;;;;;;5050722;28;20036;-68
2023/07/23 00:39:14;;;;;;;13.20;7.30;;;17.80;99.90;;;;;;5049252;28;20344;-68
2023/07/23 00:41:39;;;;;;;14.35;7.72;;;17.80;99.90;;;;;;5051635;28;20194;-68
2023/07/23 00:44:05;;;;;;;13.70;7.13;;;17.80;99.90;;;;;;5050778;28;20052;-67
2023/07/23 00:46:31;;;;;;;18.38;7.60;;;17.70;99.90;;;;;;5050575;28;20132;-68
2023/07/23 00:49:01;;;;;;;15.30;9.70;;;17.70;99.90;;;;;;5049247;28;20074;-68
2023/07/23 00:51:28;;;;;;;13.05;7.72;;;17.70;99.90;;;;;;5050593;28;20039;-69
2023/07/23 00:53:54;;;;;;;15.85;9.75;;;17.60;99.90;;;;;;5050150;28;20139;-69
2023/07/23 00:56:20;;;;;;;11.30;6.85;;;17.60;99.90;;;;;;5050687;28;20031;-68
2023/07/23 00:58:47;;;;;;;11.55;7.15;;;17.60;99.90;;;;;;5049101;28;20120;-69
2023/07/23 01:01:13;;;;;;;16.98;9.13;;;17.50;99.90;;;;;;5050381;28;20029;-68
2023/07/23 01:03:38;;;;;;;14.15;7.78;;;17.60;99.90;;;;;;5048970;28;20466;-67
2023/07/23 01:06:05;;;;;;;11.88;7.05;;;17.50;99.90;;;;;;5050059;28;20108;-68
2023/07/23 01:08:33;;;;;;;15.65;9.77;;;17.50;99.90;;;;;;5050991;28;20087;-68
2023/07/23 01:11:00;;;;;;;19.98;11.73;;;17.50;99.90;;;;;;5050339;28;20037;-67
2023/07/23 01:13:26;;;;;;;14.50;8.57;;;17.50;99.90;;;;;;5050188;28;20040;-67
2023/07/23 01:15:53;;;;;;;14.13;7.80;;;17.50;99.90;;;;;;5049944;28;20029;-67
2023/07/23 01:18:19;;;;;;;16.75;7.97;;;17.40;99.90;;;;;;5049859;28;20487;-68
2023/07/23 01:20:45;;;;;;;14.65;8.95;;;17.40;99.90;;;;;;5050366;28;20029;-68
2023/07/23 01:23:10;;;;;;;13.88;7.43;;;17.50;99.90;;;;;;5050189;28;20056;-68
2023/07/23 01:25:36;;;;;;;13.13;6.47;;;17.40;99.90;;;;;;5050078;28;20438;-68
2023/07/23 01:28:02;;;;;;;16.52;9.68;;;17.40;99.90;;;;;;5050008;28;20040;-68
2023/07/23 01:30:29;;;;;;;16.35;9.73;;;17.40;99.90;;;;;;5049823;28;20029;-68
2023/07/23 01:32:55;;;;;;;13.57;7.10;;;17.40;99.90;;;;;;5049623;28;20052;-68
2023/07/23 01:35:20;;;;;;;11.65;6.78;;;17.40;99.90;;;;;;5057991;28;20032;-67
2023/07/23 01:37:47;;;;;;;15.02;6.72;;;17.40;99.90;;;;;;5090080;28;20042;-67
2023/07/23 01:40:15;;;;;;;12.00;6.10;;;17.40;99.90;;;;;;5093334;28;20044;-69
2023/07/23 01:42:42;;;;;;;10.48;6.43;;;17.40;99.90;;;;;;5092733;28;20357;-68
2023/07/23 01:45:08;;;;;;;9.20;5.95;;;17.40;99.90;;;;;;5093816;28;20039;-68
2023/07/23 01:47:34;;;;;;;10.55;6.43;;;17.40;99.90;;;;;;5094499;28;20096;-68
2023/07/23 01:50:00;;;;;;;8.18;5.15;;;17.40;99.90;;;;;;5093754;28;20063;-68
2023/07/23 01:52:26;;;;;;;10.68;5.63;;;17.40;99.90;;;;;;5093832;28;20086;-68
2023/07/23 01:54:51;;;;;;;10.85;6.13;;;17.40;99.90;;;;;;5093603;28;20043;-67
2023/07/23 01:57:17;;;;;;;10.32;5.90;;;17.40;99.90;;;;;;5094175;28;20024;-68
2023/07/23 01:59:43;;;;;;;10.88;5.63;;;17.30;99.90;;;;;;5094023;28;20355;-68
2023/07/23 02:02:10;;;;;;;9.65;5.80;;;17.30;99.90;;;;;;5093641;28;20114;-68
2023/07/23 02:04:36;;;;;;;12.27;6.60;;;17.30;99.90;;;;;;5093741;28;20521;-68
2023/07/23 02:07:02;;;;;;;13.13;6.07;;;17.30;99.90;;;;;;5093376;28;20332;-67
2023/07/23 02:09:28;;;;;;;11.80;5.75;;;17.30;99.90;;;;;;5093376;28;20035;-68
2023/07/23 02:11:54;;;;;;;12.80;5.80;;;17.30;99.90;;;;;;5093459;28;20331;-68
2023/07/23 02:14:19;;;;;;;13.25;6.30;;;17.20;99.90;;;;;;5093767;28;20124;-68
2023/07/23 02:16:45;;;;;;;9.82;5.80;;;17.20;99.90;;;;;;5092301;28;20033;-67
2023/07/23 02:19:12;;;;;;;11.27;6.05;;;17.10;99.90;;;;;;5093208;28;20028;-68
2023/07/23 02:21:38;;;;;;;11.03;6.23;;;17.20;99.90;;;;;;5092121;28;20122;-68
2023/07/23 02:24:05;;;;;;;11.40;6.03;;;17.10;99.90;;;;;;5093002;28;20098;-68
2023/07/23 02:26:31;;;;;;;10.18;6.47;;;17.10;99.90;;;;;;5092460;28;20538;-67
2023/07/23 02:28:56;;;;;;;11.15;5.90;;;17.10;99.90;;;;;;5093679;28;20060;-69
2023/07/23 02:31:22;;;;;;;13.60;6.13;;;17.10;99.90;;;;;;5092973;28;20036;-68
2023/07/23 02:33:48;;;;;;;11.60;6.20;;;17.10;99.90;;;;;;5093381;28;20038;-67
2023/07/23 02:36:13;;;;;;;9.88;6.00;;;17.00;99.90;;;;;;5092849;28;20109;-69
2023/07/23 02:38:39;;;;;;;9.45;5.72;;;17.00;99.90;;;;;;5093511;28;20438;-68
2023/07/23 02:41:06;;;;;;;12.98;6.50;;;17.00;99.90;;;;;;5093009;28;20031;-68
2023/07/23 02:43:31;;;;;;;10.27;6.32;;;17.00;99.90;;;;;;5092828;28;20495;-68
2023/07/23 02:45:57;;;;;;;9.95;6.07;;;17.00;99.90;;;;;;5074808;28;20055;-66
2023/07/23 02:48:23;;;;;;;17.23;7.05;;;17.00;99.90;;;;;;5092576;28;20082;-68
2023/07/23 02:50:50;;;;;;;10.85;5.97;;;17.00;99.90;;;;;;5090838;28;20032;-69
2023/07/23 02:53:15;;;;;;;9.82;6.50;;;16.90;99.90;;;;;;5092897;28;20115;-68
2023/07/23 02:55:41;;;;;;;10.40;6.28;;;16.90;99.90;;;;;;5092524;28;20119;-68
2023/07/23 02:58:07;;;;;;;11.68;6.47;;;17.00;99.90;;;;;;5091445;28;20044;-68
2023/07/23 03:00:33;;;;;;;11.18;6.00;;;17.00;99.90;;;;;;5092431;28;20056;-68
2023/07/23 03:02:58;;;;;;;11.30;6.10;;;17.00;99.90;;;;;;5092386;28;20099;-68
2023/07/23 03:05:25;;;;;;;10.48;7.10;;;17.00;99.90;;;;;;5091672;28;20537;-67
2023/07/23 03:07:54;;;;;;;13.15;7.05;;;17.00;99.90;;;;;;5092627;28;20052;-68
2023/07/23 03:10:19;;;;;;;14.00;6.30;;;17.00;99.90;;;;;;5092561;28;20460;-68
2023/07/23 03:12:45;;;;;;;12.70;6.88;;;17.00;99.90;;;;;;5092291;28;20056;-68
2023/07/23 03:15:10;;;;;;;12.65;7.15;;;16.90;99.90;;;;;;5091931;28;20126;-68
2023/07/23 03:17:36;;;;;;;12.20;6.82;;;17.00;99.90;;;;;;5091511;28;20020;-69
2023/07/23 03:20:03;;;;;;;9.80;6.20;;;16.90;99.90;;;;;;5092111;28;20089;-67
2023/07/23 03:22:29;;;;;;;14.10;7.40;;;16.90;99.90;;;;;;5092167;28;20043;-68
2023/07/23 03:24:55;;;;;;;12.55;7.10;;;16.90;99.90;;;;;;5092001;28;20624;-67
2023/07/23 03:27:21;;;;;;;14.38;7.28;;;16.90;99.90;;;;;;5091911;28;20110;-67
2023/07/23 03:29:47;;;;;;;12.88;8.02;;;16.90;99.90;;;;;;5092532;28;20354;-68
2023/07/23 03:32:12;;;;;;;13.80;7.03;;;16.80;99.90;;;;;;5091617;28;20048;-68
2023/07/23 03:34:38;;;;;;;11.60;8.15;;;16.80;99.90;;;;;;5091800;28;20032;-67
2023/07/23 03:37:04;;;;;;;14.15;8.38;;;16.80;99.90;;;;;;5091927;28;20033;-67
2023/07/23 03:39:29;;;;;;;12.50;7.45;;;16.80;99.90;;;;;;5091736;28;20039;-67
2023/07/23 03:41:55;;;;;;;15.45;7.53;;;16.80;99.90;;;;;;5092064;28;20028;-67
2023/07/23 03:44:21;;;;;;;11.60;6.97;;;16.80;99.90;;;;;;5092097;28;20031;-67
2023/07/23 03:47:20;;;;;;;12.77;8.02;;;16.80;99.90;;;;;;5091718;28;20035;-68
2023/07/23 03:49:47;;;;;;;13.40;7.95;;;16.70;99.90;;;;;;5068581;28;20478;-67
2023/07/23 03:52:13;;;;;;;13.45;7.22;;;16.70;99.90;;;;;;5091410;28;20470;-69
2023/07/23 03:54:39;;;;;;;13.00;8.10;;;16.70;99.90;;;;;;5091330;28;20040;-67
2023/07/23 03:57:05;;;;;;;14.85;8.07;;;16.70;99.90;;;;;;5091248;28;20047;-67
2023/07/23 03:59:42;;;;;;;16.20;7.60;;;16.70;99.90;;;;;;5091779;28;20019;-68
2023/07/23 04:02:08;;;;;;;15.02;7.90;;;16.70;99.90;;;;;;5091068;28;20047;-67
2023/07/23 04:04:35;;;;;;;14.93;7.80;;;16.70;99.90;;;;;;5091364;28;20035;-68
2023/07/23 04:07:01;;;;;;;15.70;7.25;;;16.70;99.90;;;;;;5091293;28;20039;-69
2023/07/23 04:09:27;;;;;;;13.52;7.32;;;16.70;99.90;;;;;;5091245;28;20089;-68
2023/07/23 04:11:52;;;;;;;13.93;7.32;;;16.70;99.90;;;;;;5091109;28;20458;-68
2023/07/23 04:14:18;;;;;;;11.57;6.90;;;16.80;99.90;;;;;;5091718;28;20030;-68
2023/07/23 04:16:44;;;;;;;14.90;8.13;;;16.80;99.90;;;;;;5091335;28;20032;-68
2023/07/23 04:19:09;;;;;;;15.57;7.70;;;16.80;99.90;;;;;;5091070;28;20036;-68
2023/07/23 04:21:35;;;;;;;16.20;6.80;;;16.80;99.90;;;;;;5090994;28;20028;-68
2023/07/23 04:24:01;;;;;;;14.57;7.20;;;16.80;99.90;;;;;;5090783;28;20365;-67
2023/07/23 04:26:28;;;;;;;14.65;7.00;;;16.80;99.90;;;;;;5091475;28;20021;-68
2023/07/23 04:28:54;;;;;;;14.93;7.00;;;16.80;99.90;;;;;;5090898;28;20105;-67
2023/07/23 04:31:20;;;;;;;13.88;7.00;;;16.80;99.90;;;;;;5089146;28;20118;-67
2023/07/23 04:33:46;;;;;;;14.18;7.53;;;16.70;99.90;;;;;;5090806;28;20039;-67
2023/07/23 04:36:13;;;;;;;18.50;7.63;;;16.70;99.90;;;;;;5091099;28;20024;-68
2023/07/23 04:38:40;;;;;;;14.10;6.90;;;16.70;99.90;;;;;;5091535;28;20107;-68
2023/07/23 04:41:06;;;;;;;12.23;6.70;;;16.60;99.90;;;;;;5089687;28;20450;-68
2023/07/23 04:43:32;;;;;;;15.70;7.20;;;16.70;99.90;;;;;;5090917;28;20408;-68
2023/07/23 04:45:58;;;;;;;10.73;6.20;;;16.70;99.90;;;;;;5089529;28;20458;-68
2023/07/23 04:48:24;;;;;;;12.75;6.72;;;16.70;99.90;;;;;;5091188;28;20039;-68
2023/07/23 04:50:56;;;;;;;13.15;6.88;;;16.70;99.90;;;;;;5089541;28;20028;-68
2023/07/23 04:53:23;;;;;;;11.68;6.65;;;16.70;99.90;;;;;;5089952;28;20055;-68
2023/07/23 04:55:57;;;;;;;15.25;7.18;;;16.70;99.90;;;;;;5090294;28;20132;-68
2023/07/23 04:58:23;;;;;;;14.20;6.80;;;16.70;99.90;;;;;;5090497;28;20553;-67
2023/07/23 05:00:49;;;;;;;13.88;6.32;;;16.70;99.90;;;;;;5090466;28;20044;-68
2023/07/23 05:03:15;;;;;;;13.43;6.15;;;16.80;99.90;;;;;;5089427;28;20359;-68
2023/07/23 05:05:46;;;;;;;12.00;6.07;;;16.70;99.90;;;;;;5090945;28;20020;-68
2023/07/23 05:08:12;;;;;;;11.98;6.50;;;16.70;99.90;;;;;;5090705;28;20028;-67
2023/07/23 05:10:39;;;;;;;17.30;6.95;;;16.70;99.90;;;;;;5090551;28;20119;-68
2023/07/23 05:13:05;;;;;;;12.95;7.18;;;16.70;99.90;;;;;;5089311;28;20524;-68
2023/07/23 05:15:31;;;;;;;13.98;7.25;;;16.70;99.90;;;;;;5094236;28;20138;-68
2023/07/23 05:17:56;;;;;;;16.48;6.50;;;16.80;99.90;;;;;;5094823;28;20364;-68
2023/07/23 05:20:22;;;;;;;11.57;6.53;;;16.80;99.90;;;;;;5094999;28;20103;-68
2023/07/23 05:22:48;;;;;;;12.60;5.82;;;16.80;99.90;;;;;;5094594;28;20036;-67
2023/07/23 05:25:14;;;;;;;13.20;6.20;;;16.80;99.90;;;;;;5094409;28;20036;-68
2023/07/23 05:27:39;;;;;;;11.23;6.10;;;16.80;99.90;;;;;;5093450;28;20044;-67
2023/07/23 05:30:06;;;;;;;15.63;6.75;;;16.90;99.90;;;;;;5094593;28;20039;-68
2023/07/23 05:32:32;;;;;;;14.73;6.60;;;16.80;99.90;;;;;;5094375;28;20055;-68
2023/07/23 05:34:58;;;;;;;13.15;6.90;;;16.80;99.90;;;;;;5094003;28;20478;-68
2023/07/23 05:37:24;;;;;;;11.98;6.28;;;16.90;99.90;;;;;;5094502;28;20127;-67
2023/07/23 05:39:53;;;;;;;13.57;6.32;;;16.90;99.90;;;;;;5094025;28;20036;-68
2023/07/23 05:42:18;;;;;;;10.55;6.45;;;16.90;99.90;;;;;;5094242;28;20024;-67
2023/07/23 05:44:44;;;;;;;10.50;6.10;;;16.90;99.90;;;;;;5094459;28;20036;-68
2023/07/23 05:47:10;;;;;;;11.45;6.38;;;16.90;99.90;;;;;;5094246;28;20036;-67
2023/07/23 05:49:35;;;;;;;11.20;6.10;;;16.90;99.90;;;;;;5094226;28;20036;-67
2023/07/23 05:52:02;;;;;;;21.85;6.57;;;17.00;99.90;;;;;;5093886;28;20032;-68
2023/07/23 05:54:28;;;;;;;14.25;6.93;;;17.00;99.90;;;;;;5093804;28;20036;-68
2023/07/23 05:56:53;;;;;;;19.30;6.60;;;17.00;99.90;;;;;;5093842;28;20107;-68
2023/07/23 05:59:19;;;;;;;12.25;6.00;;;17.00;99.90;;;;;;5094143;28;20056;-68
2023/07/23 06:01:45;;;;;;;11.63;5.97;;;17.10;99.90;;;;;;5093655;28;20036;-68
2023/07/23 06:04:10;;;;;;;12.80;6.18;;;17.10;99.90;;;;;;5093935;28;20028;-68
2023/07/23 06:06:36;;;;;;;11.35;5.45;;;17.20;99.90;;;;;;5093598;28;20059;-68
2023/07/23 06:09:05;;;;;;;11.55;5.75;;;17.30;99.90;;;;;;5093347;28;20032;-68
2023/07/23 06:11:31;;;;;;;13.60;5.30;;;17.30;99.90;;;;;;5093892;28;20412;-68
2023/07/23 06:13:58;;;;;;;10.18;4.82;;;17.40;99.90;;;;;;5093421;28;20024;-68
2023/07/23 06:16:24;;;;;;;14.15;7.72;;;17.50;99.90;;;;;;5093444;28;20031;-69
2023/07/23 06:18:49;;;;;;;14.93;7.28;;;17.50;99.90;;;;;;5093207;28;20036;-68
2023/07/23 06:21:15;;;;;;;11.63;5.78;;;17.60;99.90;;;;;;5093394;28;20031;-67
2023/07/23 06:23:41;;;;;;;10.00;5.78;;;17.60;99.90;;;;;;5092333;28;20111;-67
2023/07/23 06:26:06;;;;;;;9.45;5.10;;;17.70;99.90;;;;;;5093378;28;20108;-68
2023/07/23 06:28:32;;;;;;;9.98;5.50;;;17.80;99.90;;;;;;5093127;28;20080;-68
2023/07/23 06:30:58;;;;;;;12.07;6.32;;;17.80;99.90;;;;;;5091888;28;20123;-68
2023/07/23 06:33:25;;;;;;;14.43;6.32;;;17.80;99.90;;;;;;5092859;28;20100;-69
2023/07/23 06:35:50;;;;;;;9.32;5.35;;;17.90;99.90;;;;;;5092793;28;20495;-67
2023/07/23 06:38:16;;;;;;;8.57;4.97;;;18.00;99.90;;;;;;5093398;28;20020;-69
2023/07/23 06:40:53;;;;;;;7.60;4.90;;;18.10;99.90;;;;;;5091812;28;20028;-68
2023/07/23 06:43:22;;;;;;;12.18;5.03;;;18.20;99.90;;;;;;5092765;28;20143;-69
2023/07/23 06:45:49;;;;;;;9.38;4.75;;;18.20;99.90;;;;;;5092877;28;20035;-70
2023/07/23 06:48:15;;;;;;;7.15;4.45;;;18.20;99.90;;;;;;5093002;28;20031;-69
2023/07/23 06:50:44;;;;;;;7.30;4.78;;;18.20;99.90;;;;;;5093087;28;20115;-69
2023/07/23 06:53:10;;;;;;;9.50;5.82;;;18.40;99.90;;;;;;5093035;28;20120;-67
2023/07/23 06:55:57;;;;;;;9.68;4.50;;;18.40;99.90;;;;;;5093033;28;20123;-69
2023/07/23 06:58:23;;;;;;;7.55;4.38;;;18.50;99.90;;;;;;5092471;28;20424;-68
2023/07/23 07:00:49;;;;;;;7.20;4.15;;;18.60;99.90;;;;;;5092504;28;20266;-69
2023/07/23 07:03:14;;;;;;;8.05;4.47;;;18.70;99.90;;;;;;5092449;28;20032;-69
2023/07/23 07:05:40;;;;;;;12.85;4.15;;;18.70;99.90;;;;;;5092883;28;20055;-69
2023/07/23 07:08:06;;;;;;;13.38;7.00;;;18.80;99.90;;;;;;5092485;28;20034;-70
2023/07/23 07:10:31;;;;;;;13.68;5.57;;;18.80;99.90;;;;;;5092169;28;20024;-69
2023/07/23 07:12:57;;;;;;;12.25;4.75;;;18.90;99.90;;;;;;5092405;28;20028;-69
2023/07/23 07:15:22;;;;;;;12.32;4.85;;;19.00;99.90;;;;;;5092200;28;20032;-68
2023/07/23 07:17:48;;;;;;;11.27;4.00;;;19.10;99.90;;;;;;5091838;28;20031;-70
2023/07/23 07:20:14;;;;;;;9.00;4.13;;;19.20;99.90;;;;;;5091357;28;20093;-69
2023/07/23 07:22:40;;;;;;;13.00;4.00;;;19.30;99.90;;;;;;5092450;28;20062;-68
2023/07/23 07:25:06;;;;;;;5.25;3.47;;;19.40;99.90;;;;;;5092137;28;20032;-69
2023/07/23 07:27:32;;;;;;;10.35;4.03;;;19.40;99.90;;;;;;5091960;28;20121;-68
2023/07/23 07:29:57;;;;;;;6.90;3.63;;;19.50;99.80;;;;;;5091809;28;20028;-69
2023/07/23 07:32:23;;;;;;;4.97;3.40;;;19.60;99.60;;;;;;5092216;28;20051;-69
2023/07/23 07:34:48;;;;;;;10.85;4.10;;;19.70;99.30;;;;;;5091952;28;20032;-68
2023/07/23 07:37:14;;;;;;;6.90;3.67;;;19.80;99.20;;;;;;5091293;28;20109;-69
2023/07/23 07:39:41;;;;;;;11.75;3.75;;;19.80;98.60;;;;;;5091621;28;20127;-69
2023/07/23 07:42:06;;;;;;;13.38;3.83;;;19.90;98.00;;;;;;5091887;28;20032;-68
2023/07/23 07:44:32;;;;;;;7.07;3.83;;;19.90;98.20;;;;;;5092191;28;20028;-68
2023/07/23 07:46:58;;;;;;;8.13;4.50;;;19.90;98.20;;;;;;5091746;28;20506;-68
2023/07/23 07:49:24;;;;;;;5.57;3.67;;;19.90;98.10;;;;;;5092055;28;20048;-68
2023/07/23 07:51:49;;;;;;;10.27;4.38;;;20.00;98.10;;;;;;5091946;28;20147;-68
2023/07/23 07:54:15;;;;;;;8.13;4.03;;;20.00;97.90;;;;;;5091532;28;20115;-68
2023/07/23 07:56:43;;;;;;;8.63;3.65;;;20.20;98.10;;;;;;5092046;28;20116;-68
2023/07/23 07:59:12;;;;;;;7.05;3.67;;;20.20;97.70;;;;;;5091853;28;20055;-68
2023/07/23 08:01:38;;;;;;;8.02;3.55;;;20.30;97.70;;;;;;5090334;28;20036;-68
2023/07/23 08:04:07;;;;;;;6.57;3.70;;;20.30;97.40;;;;;;5091398;28;20032;-69
2023/07/23 08:06:33;;;;;;;7.50;3.47;;;20.30;97.20;;;;;;5091106;28;20024;-68
2023/07/23 08:09:02;;;;;;;6.22;3.60;;;20.50;97.30;;;;;;5091355;28;20043;-67
2023/07/23 08:11:29;;;;;;;6.97;3.88;;;20.50;97.10;;;;;;5090553;28;20020;-67
2023/07/23 08:13:55;;;;;;;7.95;4.03;;;20.60;97.00;;;;;;5091045;28;20126;-68
2023/07/23 08:16:21;;;;;;;8.88;3.90;;;20.70;96.80;;;;;;5091016;28;20446;-68
2023/07/23 08:18:47;;;;;;;6.85;3.67;;;20.80;97.00;;;;;;5091186;28;20426;-68
2023/07/23 08:21:13;;;;;;;9.95;3.78;;;20.90;97.10;;;;;;5091366;28;20047;-68
2023/07/23 08:23:39;;;;;;;6.93;3.75;;;21.10;96.80;;;;;;5091692;28;20020;-68
2023/07/23 08:26:06;;;;;;;12.45;3.45;;;21.30;96.50;;;;;;5091352;28;20375;-68
2023/07/23 08:28:37;;;;;;;9.02;4.00;;;21.60;96.00;;;;;;5091300;28;20024;-69
2023/07/23 08:31:03;;;;;;;8.55;5.38;;;21.80;95.70;;;;;;5090688;28;20024;-67
2023/07/23 08:33:31;;;;;;;5.55;3.88;;;22.00;95.50;;;;;;5090462;28;20040;-68
2023/07/23 08:35:58;;;;;;;5.85;3.55;;;22.20;94.60;;;;;;5090659;28;20024;-68
2023/07/23 08:38:25;;;;;;;8.82;4.30;;;22.20;94.30;;;;;;5091352;28;20386;-67
2023/07/23 08:41:00;;;;;;;5.78;3.95;;;22.40;94.00;;;;;;5090417;28;20476;-67
2023/07/23 08:44:10;;;;;;;10.45;4.20;;;22.40;93.80;;;;;;5090523;28;20187;-67
2023/07/23 08:46:46;;;;;;;7.20;3.78;;;22.20;93.90;;;;;;5090459;28;20043;-69
2023/07/23 08:49:12;;;;;;;7.05;3.97;;;22.20;93.90;;;;;;5089656;28;20036;-67
2023/07/23 08:51:46;;;;;;;7.10;3.80;;;22.20;94.10;;;;;;5090649;28;20043;-68
2023/07/23 08:54:14;;;;;;;7.32;3.42;;;22.20;93.80;;;;;;5090239;28;20036;-67
2023/07/23 08:56:41;;;;;;;19.52;5.25;;;22.20;93.00;;;;;;5090892;28;20032;-67
2023/07/23 08:59:08;;;;;;;4.80;3.30;;;22.10;92.70;;;;;;5090676;28;20043;-69
2023/07/23 09:01:39;;;;;;;7.50;3.20;;;22.20;92.50;;;;;;5090663;28;20032;-67
2023/07/23 09:04:10;;;;;;;10.27;3.92;;;22.20;92.60;;;;;;5089098;28;20031;-67
2023/07/23 09:06:36;;;;;;;7.65;3.40;;;22.20;92.00;;;;;;5090243;28;20142;-68
2023/07/23 09:09:06;;;;;;;5.05;3.28;;;22.40;92.60;;;;;;5090081;28;20099;-67
2023/07/23 09:11:33;;;;;;;3.78;3.25;;;22.40;92.10;;;;;;5090567;28;20020;-67
2023/07/23 09:14:01;;;;;;;8.65;3.15;;;22.50;92.30;;;;;;5090152;28;20451;-67
2023/07/23 09:16:27;;;;;;;12.88;3.85;;;22.40;92.00;;;;;;5090207;28;20105;-67
2023/07/23 09:18:53;;;;;;;8.02;3.97;;;22.40;91.90;;;;;;5090117;28;20070;-67
2023/07/23 09:21:28;;;;;;;8.57;3.85;;;22.30;92.00;;;;;;5090209;28;20042;-67
2023/07/23 09:24:02;;;;;;;4.18;2.80;;;22.30;92.60;;;;;;5089891;28;20023;-67
2023/07/23 09:26:28;;;;;;;12.27;3.45;;;22.30;92.40;;;;;;5090463;28;20035;-66
2023/07/23 09:28:57;;;;;;;4.90;3.15;;;22.30;92.20;;;;;;5090567;28;20090;-68
2023/07/23 09:31:29;;;;;;;8.90;3.88;;;22.30;92.50;;;;;;5089932;28;20054;-67
2023/07/23 09:34:00;;;;;;;4.03;2.88;;;22.20;92.10;;;;;;5089910;28;20040;-68
2023/07/23 09:36:27;;;;;;;7.03;3.72;;;22.20;91.90;;;;;;5090046;28;20031;-66
2023/07/23 09:39:04;;;;;;;6.40;3.40;;;22.20;92.20;;;;;;5089903;28;20471;-67
2023/07/23 09:41:35;;;;;;;6.72;2.80;;;22.20;92.30;;;;;;5090312;28;20028;-68
2023/07/23 09:44:02;;;;;;;7.50;4.15;;;22.30;92.40;;;;;;5090000;28;20456;-67
2023/07/23 09:46:29;;;;;;;5.70;3.45;;;22.40;92.20;;;;;;5089915;28;20024;-68
2023/07/23 09:48:55;;;;;;;5.30;3.28;;;22.40;91.90;;;;;;5090144;28;20032;-67
2023/07/23 09:51:21;;;;;;;6.95;4.18;;;22.40;92.10;;;;;;5090168;28;20020;-67
2023/07/23 09:53:47;;;;;;;12.40;5.63;;;22.50;92.20;;;;;;5090344;28;20030;-69
2023/07/23 09:56:16;;;;;;;7.53;3.47;;;22.60;92.50;;;;;;5090029;28;20119;-68
2023/07/23 09:58:44;;;;;;;9.93;3.70;;;22.80;92.20;;;;;;5090036;28;20357;-68
2023/07/23 10:01:11;;;;;;;7.60;3.30;;;22.70;91.80;;;;;;5091634;28;20040;-68
2023/07/23 10:03:38;;;;;;;5.17;2.87;;;22.70;91.30;;;;;;5092346;28;20115;-68
2023/07/23 10:06:05;;;;;;;7.20;3.33;;;22.70;91.00;;;;;;5093126;28;20384;-67
2023/07/23 10:08:34;;;;;;;4.40;2.50;;;22.60;89.50;;;;;;5093917;28;20063;-67
2023/07/23 10:11:00;;;;;;;7.07;2.78;;;22.60;89.00;;;;;;5093571;28;20036;-68
2023/07/23 10:13:26;;;;;;;3.65;2.60;;;22.70;88.20;;;;;;5092211;28;20466;-68
2023/07/23 10:15:52;;;;;;;6.15;2.85;;;22.70;87.50;;;;;;5092919;28;20032;-67
2023/07/23 10:18:21;;;;;;;3.78;2.45;;;22.60;86.50;;;;;;5093046;28;20119;-68
2023/07/23 10:20:47;;;;;;;6.20;2.83;;;22.70;86.80;;;;;;5093617;28;20024;-68
2023/07/23 10:23:15;;;;;;;4.80;2.42;;;22.70;85.70;;;;;;5092871;28;20028;-68
2023/07/23 10:25:40;;;;;;;5.25;2.35;;;22.80;84.90;;;;;;5092851;28;20090;-68
2023/07/23 10:28:08;;;;;;;5.20;3.15;;;22.80;84.70;;;;;;5091817;28;20024;-68
2023/07/23 10:30:36;;;;;;;7.75;3.83;;;22.90;84.80;;;;;;5092694;28;20062;-67
2023/07/23 10:33:25;;;;;;;3.38;2.63;;;22.90;84.10;;;;;;5092532;28;20052;-67
2023/07/23 10:35:54;;;;;;;2.90;2.42;;;22.90;82.50;;;;;;5086934;28;20111;-68
2023/07/23 10:38:21;;;;;;;3.90;2.42;;;22.80;81.50;;;;;;5093021;28;20034;-67
2023/07/23 10:40:47;;;;;;;3.70;2.83;;;22.80;82.10;;;;;;5092733;28;20032;-68
2023/07/23 10:43:13;;;;;;;4.72;2.00;;;22.70;81.20;;;;;;5092902;28;20032;-68
2023/07/23 10:45:44;;;;;;;6.18;3.00;;;22.70;81.30;;;;;;5092691;28;20380;-68
2023/07/23 10:48:16;;;;;;;4.60;2.50;;;22.70;82.00;;;;;;5092581;28;20028;-67
2023/07/23 10:50:58;;;;;;;4.95;2.25;;;22.80;81.60;;;;;;5092733;28;20085;-67
2023/07/23 10:53:26;;;;;;;5.65;2.33;;;22.80;81.20;;;;;;5092942;28;20036;-68
2023/07/23 10:55:52;;;;;;;5.53;1.90;;;22.80;81.10;;;;;;5092280;28;20497;-67
2023/07/23 10:58:22;;;;;;;3.63;2.20;;;22.70;80.80;;;;;;5092386;28;20051;-68
2023/07/23 11:00:53;;;;;;;4.57;2.58;;;22.80;81.50;;;;;;5092399;28;20470;-67
2023/07/23 11:03:21;;;;;;;4.13;2.60;;;22.70;81.20;;;;;;5092206;28;20442;-67
2023/07/23 11:05:47;;;;;;;5.78;3.15;;;22.70;81.50;;;;;;5092925;28;20024;-68
2023/07/23 11:08:15;;;;;;;6.68;3.03;;;22.80;82.10;;;;;;5091935;28;20355;-68
2023/07/23 11:10:47;;;;;;;5.47;2.80;;;22.70;82.10;;;;;;5090570;28;20044;-68
2023/07/23 11:13:15;;;;;;;6.03;2.20;;;22.70;81.60;;;;;;5090341;28;20039;-67
2023/07/23 11:15:40;;;;;;;3.55;2.15;;;22.80;81.80;;;;;;5091814;28;20486;-67
2023/07/23 11:18:08;;;;;;;7.55;2.45;;;22.80;81.60;;;;;;5091940;28;20043;-67
2023/07/23 11:20:33;;;;;;;4.88;2.58;;;22.70;81.60;;;;;;5092400;28;20463;-68
2023/07/23 11:22:59;;;;;;;8.57;2.45;;;22.70;82.20;;;;;;5091884;28;20119;-69
2023/07/23 11:25:25;;;;;;;7.53;2.90;;;22.60;81.70;;;;;;5091782;28;20032;-67
2023/07/23 11:27:50;;;;;;;4.65;2.63;;;22.60;82.10;;;;;;5091772;28;20131;-68
2023/07/23 11:30:16;;;;;;;6.60;3.97;;;22.60;82.30;;;;;;5090729;28;20043;-67
2023/07/23 11:32:42;;;;;;;5.60;2.92;;;22.60;82.60;;;;;;5091859;28;20343;-67
2023/07/23 11:35:09;;;;;;;6.03;2.60;;;22.60;83.00;;;;;;5091688;28;20042;-67
2023/07/23 11:37:34;;;;;;;5.03;2.38;;;22.60;83.50;;;;;;5091940;28;20063;-68
2023/07/23 11:40:01;;;;;;;5.47;2.92;;;22.70;84.00;;;;;;5090305;28;20028;-68
2023/07/23 11:42:26;;;;;;;2.95;2.05;;;22.80;84.40;;;;;;5090397;28;20016;-67
2023/07/23 11:45:03;;;;;;;3.83;2.17;;;22.70;85.00;;;;;;5090712;28;20046;-67
2023/07/23 11:47:30;;;;;;;3.83;2.53;;;22.60;85.20;;;;;;5091061;28;20157;-67
2023/07/23 11:49:56;;;;;;;6.28;2.55;;;22.60;85.90;;;;;;5091732;28;20389;-67
2023/07/23 11:52:25;;;;;;;3.85;2.38;;;22.50;86.30;;;;;;5091537;28;20038;-67
2023/07/23 11:54:50;;;;;;;5.40;2.40;;;22.50;87.00;;;;;;5091184;28;20036;-69
2023/07/23 11:57:16;;;;;;;4.38;2.53;;;22.50;87.70;;;;;;5090287;28;20412;-68
2023/07/23 11:59:43;;;;;;;4.55;3.00;;;22.40;88.10;;;;;;5091736;28;20020;-67
2023/07/23 12:02:09;;;;;;;5.00;2.33;;;22.40;87.80;;;;;;5090204;28;20533;-67
2023/07/23 12:04:38;;;;;;;4.18;2.85;;;22.50;88.10;;;;;;5091169;28;20123;-67
2023/07/23 12:07:06;;;;;;;4.90;2.72;;;22.60;87.80;;;;;;5091309;28;20028;-68
2023/07/23 12:09:34;;;;;;;5.80;3.95;;;22.60;88.00;;;;;;5089793;28;20070;-68
2023/07/23 12:12:00;;;;;;;5.50;2.88;;;22.70;88.00;;;;;;5091027;28;20035;-67
2023/07/23 12:14:26;;;;;;;5.97;2.25;;;22.80;88.10;;;;;;5091750;28;20085;-68
2023/07/23 12:16:56;;;;;;;4.70;2.63;;;22.90;87.90;;;;;;5091166;28;20028;-68
2023/07/23 12:19:22;;;;;;;4.93;2.15;;;22.80;87.40;;;;;;5090962;28;20028;-66
2023/07/23 12:21:58;;;;;;;7.55;2.70;;;22.70;87.50;;;;;;5091130;28;20110;-67
2023/07/23 12:24:29;;;;;;;5.00;2.30;;;22.70;87.90;;;;;;5090596;28;20036;-67
2023/07/23 12:26:56;;;;;;;3.75;2.15;;;22.70;88.20;;;;;;5090846;28;20028;-67
2023/07/23 12:29:23;;;;;;;4.50;2.58;;;22.60;88.60;;;;;;5091049;28;20089;-67
2023/07/23 12:32:11;;;;;;;4.35;2.58;;;22.50;89.00;;;;;;5090605;28;20052;-68
2023/07/23 12:34:39;;;;;;;3.65;2.53;;;22.60;89.30;;;;;;5091075;28;20068;-68
2023/07/23 12:37:05;;;;;;;;;;;22.60;89.50;;;;;;5091377;28;20028;-67
2023/07/23 12:39:31;;;;;;;4.10;2.10;;;22.60;89.20;;;;;;5091085;28;19908;-68